createdAt,value
2023-03-02T00:00:25.955Z,-6.99
2023-03-02T00:01:38.676Z,-6.99
2023-03-02T00:02:41.060Z,-7.03
2023-03-02T00:03:43.104Z,-7.04
2023-03-02T00:04:53.000Z,-7.07
2023-03-02T00:05:57.556Z,-7.08
2023-03-02T00:07:04.893Z,-7.12
2023-03-02T00:08:10.025Z,-7.11
2023-03-02T00:09:12.096Z,-7.06
2023-03-02T00:10:14.385Z,-7.06
2023-03-02T00:11:16.397Z,-7.09
2023-03-02T00:12:18.597Z,-7.12
2023-03-02T00:13:21.566Z,-7.13
2023-03-02T00:14:23.576Z,-7.08
2023-03-02T00:15:25.618Z,-7.09
2023-03-02T00:16:27.615Z,-7.09
2023-03-02T00:17:29.834Z,-7.06
2023-03-02T00:18:31.989Z,-7.08
2023-03-02T00:19:34.412Z,-7.10
2023-03-02T00:20:36.627Z,-7.08
2023-03-02T00:21:38.577Z,-7.02
2023-03-02T00:22:43.067Z,-7.04
2023-03-02T00:23:45.172Z,-7.05
2023-03-02T00:24:47.255Z,-7.04
2023-03-02T00:25:49.137Z,-7.08
2023-03-02T00:26:51.112Z,-7.07
2023-03-02T00:27:53.258Z,-7.09
2023-03-02T00:28:55.845Z,-7.07
2023-03-02T00:29:58.218Z,-7.10
2023-03-02T00:31:00.986Z,-7.10
2023-03-02T00:32:04.172Z,-7.08
2023-03-02T00:33:06.474Z,-7.08
2023-03-02T00:34:08.413Z,-7.02
2023-03-02T00:35:11.516Z,-7.01
2023-03-02T00:36:18.121Z,-7.01
2023-03-02T00:37:20.717Z,-7.02
2023-03-02T00:38:22.716Z,-7.05
2023-03-02T00:39:24.863Z,-7.03
2023-03-02T00:40:26.883Z,-7.04
2023-03-02T00:41:29.141Z,-7.00
2023-03-02T00:42:31.186Z,-7.00
2023-03-02T00:43:33.182Z,-7.01
2023-03-02T00:44:35.235Z,-7.02
2023-03-02T00:45:37.356Z,-7.03
2023-03-02T00:46:39.268Z,-7.01
2023-03-02T00:47:42.445Z,-7.04
2023-03-02T00:48:45.048Z,-7.01
2023-03-02T00:49:49.652Z,-7.01
2023-03-02T00:50:51.894Z,-6.97
2023-03-02T00:51:54.437Z,-6.95
2023-03-02T00:52:56.677Z,-6.94
2023-03-02T00:54:03.076Z,-6.98
2023-03-02T00:55:05.638Z,-6.98
2023-03-02T00:56:08.680Z,-6.97
2023-03-02T00:57:10.761Z,-7.01
2023-03-02T00:58:12.816Z,-7.01
2023-03-02T00:59:26.645Z,-7.01
2023-03-02T01:00:29.462Z,-6.97
2023-03-02T01:01:31.838Z,-6.96
2023-03-02T01:02:33.999Z,-6.94
2023-03-02T01:03:36.655Z,-6.94
2023-03-02T01:04:43.702Z,-6.98
2023-03-02T01:05:46.263Z,-6.95
2023-03-02T01:06:48.351Z,-6.98
2023-03-02T01:07:50.483Z,-6.98
2023-03-02T01:08:52.523Z,-6.91
2023-03-02T01:09:54.589Z,-6.90
2023-03-02T01:10:56.692Z,-6.90
2023-03-02T01:11:59.681Z,-6.91
2023-03-02T01:13:01.755Z,-6.91
2023-03-02T01:14:03.920Z,-6.95
2023-03-02T01:15:08.418Z,-6.94
2023-03-02T01:16:10.754Z,-6.94
2023-03-02T01:17:13.658Z,-6.96
2023-03-02T01:18:15.653Z,-6.96
2023-03-02T01:19:17.801Z,-6.97
2023-03-02T01:20:19.887Z,-6.97
2023-03-02T01:21:21.853Z,-6.97
2023-03-02T01:22:24.364Z,-7.01
2023-03-02T01:23:26.341Z,-7.00
2023-03-02T01:24:28.324Z,-7.01
2023-03-02T01:25:30.517Z,-6.97
2023-03-02T01:26:33.027Z,-6.97
2023-03-02T01:27:35.536Z,-6.98
2023-03-02T01:28:37.516Z,-6.97
2023-03-02T01:29:39.744Z,-6.95
2023-03-02T01:30:41.674Z,-6.96
2023-03-02T01:31:43.924Z,-6.98
2023-03-02T01:32:45.922Z,-6.95
2023-03-02T01:33:48.124Z,-6.92
2023-03-02T01:36:04.934Z,-6.86
2023-03-02T01:37:07.065Z,-6.86
2023-03-02T01:38:08.971Z,-6.89
2023-03-02T01:39:10.984Z,-6.86
2023-03-02T01:40:14.156Z,-6.89
2023-03-02T01:41:17.080Z,-6.90
2023-03-02T01:42:19.495Z,-6.92
2023-03-02T01:43:21.589Z,-6.91
2023-03-02T01:44:44.701Z,-6.88
2023-03-02T01:45:53.607Z,-6.86
2023-03-02T01:46:55.725Z,-6.85
2023-03-02T01:47:58.004Z,-6.82
2023-03-02T01:49:07.330Z,-6.79
2023-03-02T01:50:23.606Z,-6.82
2023-03-02T01:51:28.154Z,-6.81
2023-03-02T01:52:33.563Z,-6.79
2023-03-02T01:53:37.026Z,-6.80
2023-03-02T01:54:42.153Z,-6.80
2023-03-02T01:55:45.873Z,-6.82
2023-03-02T01:56:47.930Z,-6.82
2023-03-02T01:57:51.297Z,-6.80
2023-03-02T01:59:02.257Z,-6.77
2023-03-02T02:00:08.766Z,-6.77
2023-03-02T02:01:15.857Z,-6.78
2023-03-02T02:02:17.916Z,-6.77
2023-03-02T02:03:23.800Z,-6.77
2023-03-02T02:04:29.134Z,-6.77
2023-03-02T02:05:31.163Z,-6.77
2023-03-02T02:06:39.746Z,-6.76
2023-03-02T02:07:42.397Z,-6.74
2023-03-02T02:08:46.749Z,-6.71
2023-03-02T02:09:51.813Z,-6.73
2023-03-02T02:10:54.881Z,-6.75
2023-03-02T02:11:57.087Z,-6.77
2023-03-02T02:12:59.125Z,-6.78
2023-03-02T02:14:03.287Z,-6.77
2023-03-02T02:15:06.324Z,-6.78
2023-03-02T02:16:08.350Z,-6.74
2023-03-02T02:17:11.660Z,-6.76
2023-03-02T02:18:13.618Z,-6.76
2023-03-02T02:19:21.291Z,-6.74
2023-03-02T02:20:40.310Z,-6.75
2023-03-02T02:21:42.407Z,-6.72
2023-03-02T02:22:58.595Z,-6.73
2023-03-02T02:24:23.233Z,-6.74
2023-03-02T02:25:39.910Z,-6.74
2023-03-02T02:26:52.122Z,-6.69
2023-03-02T02:27:54.696Z,-6.69
2023-03-02T02:29:08.191Z,-6.67
2023-03-02T02:30:13.604Z,-6.69
2023-03-02T02:31:36.110Z,-6.64
2023-03-02T02:32:41.912Z,-6.64
2023-03-02T02:33:46.940Z,-6.71
2023-03-02T02:34:52.152Z,-6.71
2023-03-02T02:36:02.064Z,-6.73
2023-03-02T02:37:14.195Z,-6.68
2023-03-02T02:38:19.696Z,-6.67
2023-03-02T02:39:30.026Z,-6.69
2023-03-02T02:41:00.513Z,-6.69
2023-03-02T02:42:07.267Z,-6.66
2023-03-02T02:43:13.274Z,-6.63
2023-03-02T02:44:17.556Z,-6.67
2023-03-02T02:45:24.549Z,-6.66
2023-03-02T02:46:26.958Z,-6.68
2023-03-02T02:47:29.868Z,-6.68
2023-03-02T02:48:32.778Z,-6.65
2023-03-02T02:49:37.189Z,-6.65
2023-03-02T02:50:39.084Z,-6.64
2023-03-02T02:51:41.678Z,-6.64
2023-03-02T02:52:46.123Z,-6.64
2023-03-02T02:53:59.161Z,-6.64
2023-03-02T02:55:01.394Z,-6.58
2023-03-02T02:56:05.472Z,-6.61
2023-03-02T02:57:07.952Z,-6.63
2023-03-02T02:58:25.495Z,-6.58
2023-03-02T02:59:32.448Z,-6.57
2023-03-02T03:00:34.447Z,-6.56
2023-03-02T03:01:36.676Z,-6.55
2023-03-02T03:02:44.526Z,-6.54
2023-03-02T03:03:51.971Z,-6.55
2023-03-02T03:05:03.017Z,-6.59
2023-03-02T03:06:14.040Z,-6.59
2023-03-02T03:07:23.216Z,-6.59
2023-03-02T03:08:58.868Z,-6.56
2023-03-02T03:10:27.288Z,-6.55
2023-03-02T03:11:32.838Z,-6.53
2023-03-02T03:12:35.565Z,-6.52
2023-03-02T03:13:39.286Z,-6.49
2023-03-02T03:14:42.121Z,-6.46
2023-03-02T03:15:44.419Z,-6.47
2023-03-02T03:16:48.857Z,-6.48
2023-03-02T03:17:56.275Z,-6.42
2023-03-02T03:19:05.631Z,-6.43
2023-03-02T03:20:09.569Z,-6.44
2023-03-02T03:21:11.572Z,-6.41
2023-03-02T03:22:16.208Z,-6.40
2023-03-02T03:23:18.068Z,-6.38
2023-03-02T03:24:21.012Z,-6.38
2023-03-02T03:25:26.933Z,-6.41
2023-03-02T03:26:29.174Z,-6.43
2023-03-02T03:27:31.242Z,-6.44
2023-03-02T03:28:34.165Z,-6.43
2023-03-02T03:29:38.252Z,-6.41
2023-03-02T03:30:40.931Z,-6.38
2023-03-02T03:31:43.228Z,-6.41
2023-03-02T03:32:45.298Z,-6.41
2023-03-02T03:33:47.199Z,-6.41
2023-03-02T03:34:49.775Z,-6.42
2023-03-02T03:35:51.851Z,-6.40
2023-03-02T03:36:54.402Z,-6.38
2023-03-02T03:37:56.644Z,-6.42
2023-03-02T03:38:59.716Z,-6.43
2023-03-02T03:40:01.793Z,-6.43
2023-03-02T03:41:05.593Z,-6.40
2023-03-02T03:42:07.797Z,-6.39
2023-03-02T03:43:12.193Z,-6.37
2023-03-02T03:44:14.088Z,-6.34
2023-03-02T03:45:16.098Z,-6.36
2023-03-02T03:46:18.975Z,-6.37
2023-03-02T03:47:21.078Z,-6.34
2023-03-02T03:48:23.056Z,-6.34
2023-03-02T03:49:26.224Z,-6.35
2023-03-02T03:50:28.335Z,-6.37
2023-03-02T03:51:35.525Z,-6.35
2023-03-02T03:52:37.635Z,-6.33
2023-03-02T03:53:39.767Z,-6.32
2023-03-02T03:54:42.093Z,-6.33
2023-03-02T03:55:44.015Z,-6.34
2023-03-02T03:56:48.544Z,-6.32
2023-03-02T03:57:50.755Z,-6.32
2023-03-02T03:59:06.381Z,-6.34
2023-03-02T04:00:10.754Z,-6.32
2023-03-02T04:01:12.648Z,-6.27
2023-03-02T04:02:14.767Z,-6.28
2023-03-02T04:03:16.813Z,-6.29
2023-03-02T04:04:25.177Z,-6.28
2023-03-02T04:05:27.274Z,-6.27
2023-03-02T04:06:29.310Z,-6.25
2023-03-02T04:07:31.266Z,-6.26
2023-03-02T04:08:33.190Z,-6.25
2023-03-02T04:09:38.146Z,-6.24
2023-03-02T04:10:40.936Z,-6.20
2023-03-02T04:11:44.814Z,-6.16
2023-03-02T04:12:46.926Z,-6.16
2023-03-02T04:13:49.595Z,-6.15
2023-03-02T04:14:51.521Z,-6.18
2023-03-02T04:15:53.696Z,-6.17
2023-03-02T04:16:56.084Z,-6.15
2023-03-02T04:17:58.191Z,-6.13
2023-03-02T04:19:00.201Z,-6.12
2023-03-02T04:20:02.383Z,-6.10
2023-03-02T04:21:04.497Z,-6.07
2023-03-02T04:22:06.606Z,-6.06
2023-03-02T04:23:08.661Z,-6.08
2023-03-02T04:24:10.642Z,-6.04
2023-03-02T04:25:14.288Z,-5.98
2023-03-02T04:26:16.418Z,-6.03
2023-03-02T04:27:19.233Z,-6.01
2023-03-02T04:28:21.275Z,-6.02
2023-03-02T04:29:23.816Z,-5.99
2023-03-02T04:30:27.211Z,-5.97
2023-03-02T04:31:31.568Z,-5.92
2023-03-02T04:32:33.834Z,-5.91
2023-03-02T04:33:36.022Z,-5.90
2023-03-02T04:34:38.218Z,-5.87
2023-03-02T04:35:40.429Z,-5.84
2023-03-02T04:36:42.573Z,-5.81
2023-03-02T04:37:47.131Z,-5.79
2023-03-02T04:38:49.878Z,-5.76
2023-03-02T04:39:52.979Z,-5.75
2023-03-02T04:40:56.087Z,-5.79
2023-03-02T04:41:58.022Z,-5.82
2023-03-02T04:43:00.094Z,-5.79
2023-03-02T04:44:02.332Z,-5.82
2023-03-02T04:45:04.685Z,-5.82
2023-03-02T04:46:06.669Z,-5.82
2023-03-02T04:47:10.553Z,-5.85
2023-03-02T04:48:12.541Z,-5.82
2023-03-02T04:49:16.710Z,-5.83
2023-03-02T04:50:18.707Z,-5.85
2023-03-02T04:51:27.044Z,-5.83
2023-03-02T04:52:29.106Z,-5.86
2023-03-02T04:53:31.141Z,-5.90
2023-03-02T04:54:33.234Z,-5.79
2023-03-02T04:55:35.290Z,-5.81
2023-03-02T04:56:37.243Z,-5.90
2023-03-02T04:57:39.316Z,-5.93
2023-03-02T04:58:41.234Z,-5.91
2023-03-02T04:59:43.276Z,-5.89
2023-03-02T05:00:45.227Z,-5.85
2023-03-02T05:01:48.095Z,-5.84
2023-03-02T05:02:50.401Z,-5.84
2023-03-02T05:03:53.279Z,-5.86
2023-03-02T05:04:55.356Z,-5.87
2023-03-02T05:05:58.059Z,-5.94
2023-03-02T05:07:00.294Z,-5.94
2023-03-02T05:08:02.397Z,-5.92
2023-03-02T05:09:05.016Z,-5.96
2023-03-02T05:10:07.568Z,-5.97
2023-03-02T05:11:22.368Z,-5.95
2023-03-02T05:12:24.741Z,-5.93
2023-03-02T05:13:28.111Z,-5.92
2023-03-02T05:14:30.724Z,-5.89
2023-03-02T05:15:37.801Z,-5.79
2023-03-02T05:16:41.901Z,-5.78
2023-03-02T05:17:44.238Z,-5.79
2023-03-02T05:18:47.246Z,-5.76
2023-03-02T05:19:49.159Z,-5.78
2023-03-02T05:20:51.629Z,-5.78
2023-03-02T05:21:53.812Z,-5.81
2023-03-02T05:23:00.344Z,-5.79
2023-03-02T05:24:03.518Z,-5.79
2023-03-02T05:25:06.157Z,-5.84
2023-03-02T05:26:08.410Z,-5.87
2023-03-02T05:27:10.372Z,-5.87
2023-03-02T05:28:12.405Z,-5.86
2023-03-02T05:29:14.487Z,-5.86
2023-03-02T05:30:17.404Z,-5.88
2023-03-02T05:31:23.512Z,-5.90
2023-03-02T05:32:28.125Z,-5.78
2023-03-02T05:33:30.854Z,-5.72
2023-03-02T05:34:32.758Z,-5.64
2023-03-02T05:35:35.049Z,-5.55
2023-03-02T05:36:38.015Z,-5.45
2023-03-02T05:37:42.781Z,-5.40
2023-03-02T05:38:44.918Z,-5.37
2023-03-02T05:39:46.923Z,-5.29
2023-03-02T05:40:49.927Z,-5.27
2023-03-02T05:41:51.919Z,-5.22
2023-03-02T05:42:53.982Z,-5.17
2023-03-02T05:43:56.204Z,-5.08
2023-03-02T05:44:58.088Z,-5.09
2023-03-02T05:46:00.794Z,-5.06
2023-03-02T05:47:02.716Z,-5.13
2023-03-02T05:48:05.862Z,-5.03
2023-03-02T05:49:07.932Z,-4.88
2023-03-02T05:50:10.715Z,-4.79
2023-03-02T05:51:12.739Z,-4.62
2023-03-02T05:52:14.856Z,-4.56
2023-03-02T05:53:16.765Z,-4.59
2023-03-02T05:54:18.780Z,-4.56
2023-03-02T05:55:20.977Z,-4.47
2023-03-02T05:56:22.999Z,-4.36
2023-03-02T05:57:25.638Z,-4.33
2023-03-02T05:58:28.066Z,-4.40
2023-03-02T05:59:29.971Z,-4.43
2023-03-02T06:00:32.170Z,-4.38
2023-03-02T06:01:35.741Z,-4.27
2023-03-02T06:02:39.489Z,-4.26
2023-03-02T06:03:41.531Z,-4.22
2023-03-02T06:04:43.578Z,-4.16
2023-03-02T06:05:51.128Z,-4.12
2023-03-02T06:06:53.183Z,-4.08
2023-03-02T06:07:55.330Z,-4.08
2023-03-02T06:08:57.445Z,-4.02
2023-03-02T06:09:59.367Z,-3.97
2023-03-02T06:11:01.483Z,-3.93
2023-03-02T06:12:03.530Z,-3.93
2023-03-02T06:13:05.668Z,-3.97
2023-03-02T06:14:07.660Z,-3.97
2023-03-02T06:15:10.669Z,-4.01
2023-03-02T06:16:12.671Z,-4.01
2023-03-02T06:17:14.777Z,-3.95
2023-03-02T06:18:17.234Z,-4.04
2023-03-02T06:19:19.152Z,-4.00
2023-03-02T06:20:21.107Z,-3.96
2023-03-02T06:21:23.032Z,-3.98
2023-03-02T06:22:25.275Z,-3.96
2023-03-02T06:23:27.773Z,-3.96
2023-03-02T06:24:29.770Z,-3.95
2023-03-02T06:25:32.397Z,-3.95
2023-03-02T06:26:34.637Z,-4.04
2023-03-02T06:27:38.857Z,-4.04
2023-03-02T06:28:52.155Z,-3.98
2023-03-02T06:29:55.083Z,-3.88
2023-03-02T06:30:56.990Z,-3.81
2023-03-02T06:31:59.229Z,-3.77
2023-03-02T06:33:01.857Z,-3.71
2023-03-02T06:34:04.034Z,-3.66
2023-03-02T06:35:08.808Z,-3.67
2023-03-02T06:36:12.910Z,-3.77
2023-03-02T06:37:14.938Z,-3.86
2023-03-02T06:38:17.386Z,-3.96
2023-03-02T06:39:19.322Z,-4.00
2023-03-02T06:40:21.932Z,-4.00
2023-03-02T06:41:24.374Z,-4.05
2023-03-02T06:42:27.824Z,-4.06
2023-03-02T06:43:29.732Z,-4.00
2023-03-02T06:44:31.844Z,-4.04
2023-03-02T06:45:37.918Z,-4.01
2023-03-02T06:46:41.117Z,-3.95
2023-03-02T06:47:43.029Z,-3.99
2023-03-02T06:48:45.056Z,-3.94
2023-03-02T06:49:47.043Z,-4.00
2023-03-02T06:50:49.108Z,-4.07
2023-03-02T06:51:50.996Z,-3.99
2023-03-02T06:52:53.120Z,-3.97
2023-03-02T06:53:55.003Z,-3.95
2023-03-02T06:54:57.246Z,-3.79
2023-03-02T06:55:59.336Z,-3.62
2023-03-02T06:57:01.326Z,-3.68
2023-03-02T06:58:03.450Z,-3.61
2023-03-02T06:59:05.427Z,-3.60
2023-03-02T07:00:11.914Z,-3.62
2023-03-02T07:01:14.108Z,-3.60
2023-03-02T07:02:16.178Z,-3.56
2023-03-02T07:03:18.654Z,-3.56
2023-03-02T07:04:20.890Z,-3.63
2023-03-02T07:05:24.719Z,-3.61
2023-03-02T07:06:26.700Z,-3.66
2023-03-02T07:07:28.821Z,-3.61
2023-03-02T07:08:31.372Z,-3.54
2023-03-02T07:09:34.476Z,-3.42
2023-03-02T07:10:37.849Z,-3.39
2023-03-02T07:11:40.160Z,-3.53
2023-03-02T07:12:43.036Z,-3.59
2023-03-02T07:13:45.067Z,-3.55
2023-03-02T07:14:46.980Z,-3.49
2023-03-02T07:15:49.113Z,-3.43
2023-03-02T07:16:51.241Z,-3.43
2023-03-02T07:17:53.523Z,-3.42
2023-03-02T07:18:55.693Z,-3.46
2023-03-02T07:19:57.829Z,-3.48
2023-03-02T07:20:59.800Z,-3.42
2023-03-02T07:22:01.754Z,-3.29
2023-03-02T07:23:04.162Z,-3.34
2023-03-02T07:24:06.536Z,-3.30
2023-03-02T07:25:09.850Z,-3.28
2023-03-02T07:26:11.885Z,-3.21
2023-03-02T07:27:13.905Z,-3.09
2023-03-02T07:28:16.074Z,-3.01
2023-03-02T07:29:18.292Z,-2.99
2023-03-02T07:30:21.445Z,-2.95
2023-03-02T07:31:23.537Z,-2.89
2023-03-02T07:32:26.096Z,-2.83
2023-03-02T07:33:28.078Z,-2.76
2023-03-02T07:34:30.051Z,-2.77
2023-03-02T07:35:32.024Z,-2.71
2023-03-02T07:36:34.226Z,-2.67
2023-03-02T07:37:36.263Z,-2.62
2023-03-02T07:38:38.806Z,-2.62
2023-03-02T07:39:40.870Z,-2.79
2023-03-02T07:40:43.767Z,-2.84
2023-03-02T07:41:46.055Z,-2.78
2023-03-02T07:42:48.267Z,-2.70
2023-03-02T07:43:50.480Z,-2.56
2023-03-02T07:44:54.431Z,-2.44
2023-03-02T07:45:59.744Z,-2.37
2023-03-02T07:47:01.807Z,-2.29
2023-03-02T07:48:04.515Z,-2.09
2023-03-02T07:49:06.631Z,-2.04
2023-03-02T07:50:09.310Z,-1.90
2023-03-02T07:51:11.350Z,-1.96
2023-03-02T07:52:13.260Z,-2.18
2023-03-02T07:53:15.434Z,-2.37
2023-03-02T07:54:17.437Z,-2.43
2023-03-02T07:55:19.710Z,-2.42
2023-03-02T07:56:22.014Z,-2.47
2023-03-02T07:57:24.087Z,-2.51
2023-03-02T07:58:26.120Z,-2.62
2023-03-02T07:59:29.030Z,-2.57
2023-03-02T08:00:31.105Z,-2.61
2023-03-02T08:01:33.524Z,-2.72
2023-03-02T08:02:35.737Z,-2.79
2023-03-02T08:03:38.132Z,-2.77
2023-03-02T08:04:40.751Z,-2.79
2023-03-02T08:05:42.825Z,-2.85
2023-03-02T08:06:45.102Z,-2.93
2023-03-02T08:07:47.435Z,-2.86
2023-03-02T08:08:49.508Z,-2.69
2023-03-02T08:09:51.712Z,-2.66
2023-03-02T08:10:53.664Z,-2.64
2023-03-02T08:11:55.819Z,-2.54
2023-03-02T08:12:57.749Z,-2.55
2023-03-02T08:14:01.538Z,-2.60
2023-03-02T08:15:05.021Z,-2.63
2023-03-02T08:16:09.707Z,-2.60
2023-03-02T08:17:11.887Z,-2.54
2023-03-02T08:18:13.888Z,-2.53
2023-03-02T08:19:15.877Z,-2.57
2023-03-02T08:20:17.889Z,-2.62
2023-03-02T08:21:23.839Z,-2.59
2023-03-02T08:22:25.944Z,-2.61
2023-03-02T08:23:28.006Z,-2.73
2023-03-02T08:24:30.252Z,-2.81
2023-03-02T08:25:32.249Z,-2.93
2023-03-02T08:26:34.309Z,-3.04
2023-03-02T08:27:36.225Z,-3.08
2023-03-02T08:28:38.213Z,-3.19
2023-03-02T08:29:40.130Z,-3.18
2023-03-02T08:30:42.282Z,-3.23
2023-03-02T08:31:44.339Z,-3.17
2023-03-02T08:32:46.642Z,-3.16
2023-03-02T08:33:48.724Z,-3.15
2023-03-02T08:34:51.998Z,-3.08
2023-03-02T08:36:02.923Z,-3.02
2023-03-02T08:37:04.975Z,-2.89
2023-03-02T08:38:06.938Z,-2.87
2023-03-02T08:39:08.900Z,-2.81
2023-03-02T08:40:11.471Z,-2.79
2023-03-02T08:41:17.313Z,-2.79
2023-03-02T08:42:19.424Z,-2.81
2023-03-02T08:43:22.694Z,-2.79
2023-03-02T08:44:24.853Z,-2.66
2023-03-02T08:45:27.043Z,-2.61
2023-03-02T08:46:29.094Z,-2.65
2023-03-02T08:47:31.346Z,-2.66
2023-03-02T08:48:33.656Z,-2.61
2023-03-02T08:49:38.027Z,-2.54
2023-03-02T08:50:39.751Z,-2.40
2023-03-02T08:51:41.909Z,-2.54
2023-03-02T08:52:43.872Z,-2.62
2023-03-02T08:53:47.997Z,-2.61
2023-03-02T08:54:50.135Z,-2.66
2023-03-02T08:55:52.586Z,-2.57
2023-03-02T08:56:54.610Z,-2.55
2023-03-02T08:57:56.573Z,-2.54
2023-03-02T08:59:01.047Z,-2.52
2023-03-02T09:00:03.506Z,-2.47
2023-03-02T09:01:06.183Z,-2.47
2023-03-02T09:02:10.482Z,-2.40
2023-03-02T09:03:12.757Z,-2.39
2023-03-02T09:04:14.799Z,-2.42
2023-03-02T09:05:17.076Z,-2.43
2023-03-02T09:06:19.124Z,-2.50
2023-03-02T09:07:21.492Z,-2.50
2023-03-02T09:08:23.392Z,-2.46
2023-03-02T09:09:25.353Z,-2.35
2023-03-02T09:10:27.468Z,-2.25
2023-03-02T09:11:29.707Z,-2.15
2023-03-02T09:12:31.754Z,-2.01
2023-03-02T09:13:34.063Z,-2.00
2023-03-02T09:14:36.042Z,-1.89
2023-03-02T09:15:38.062Z,-1.62
2023-03-02T09:16:40.176Z,-1.59
2023-03-02T09:17:42.214Z,-1.54
2023-03-02T09:18:44.332Z,-1.39
2023-03-02T09:19:46.363Z,-1.14
2023-03-02T09:20:52.485Z,-0.94
2023-03-02T09:21:54.372Z,-0.70
2023-03-02T09:22:56.307Z,-0.41
2023-03-02T09:23:58.604Z,-0.18
2023-03-02T09:25:00.517Z,-0.14
2023-03-02T09:26:03.506Z,-0.15
2023-03-02T09:27:05.387Z,-0.25
2023-03-02T09:28:07.501Z,-0.45
2023-03-02T09:29:09.648Z,-0.61
2023-03-02T09:30:12.543Z,-0.78
2023-03-02T09:31:14.965Z,-0.94
2023-03-02T09:32:16.976Z,-1.21
2023-03-02T09:33:20.085Z,-1.74
2023-03-02T09:34:22.032Z,-1.90
2023-03-02T09:35:24.067Z,-2.12
2023-03-02T09:36:27.392Z,-2.22
2023-03-02T09:37:30.066Z,-2.20
2023-03-02T09:38:32.316Z,-2.14
2023-03-02T09:39:34.220Z,-2.12
2023-03-02T09:40:43.378Z,-1.98
2023-03-02T09:42:00.568Z,-2.17
2023-03-02T09:43:35.356Z,-2.28
2023-03-02T09:45:23.266Z,-2.86
2023-03-02T09:46:28.263Z,-2.84
2023-03-02T09:47:54.629Z,-3.02
2023-03-02T09:49:21.378Z,-3.13
2023-03-02T09:50:29.373Z,-3.36
2023-03-02T09:52:02.152Z,-3.53
2023-03-02T09:53:13.152Z,-3.60
2023-03-02T09:54:20.503Z,-3.67
2023-03-02T09:55:28.941Z,-4.03
2023-03-02T09:56:32.107Z,-4.40
2023-03-02T09:57:38.744Z,-4.58
2023-03-02T09:58:43.384Z,-4.65
2023-03-02T09:59:50.934Z,-4.64
2023-03-02T10:00:53.089Z,-4.75
2023-03-02T10:02:01.617Z,-4.86
2023-03-02T10:03:16.640Z,-4.86
2023-03-02T10:04:26.352Z,-4.62
2023-03-02T10:05:34.434Z,-4.48
2023-03-02T10:06:36.351Z,-4.40
2023-03-02T10:07:39.170Z,-4.37
2023-03-02T10:08:43.576Z,-4.28
2023-03-02T10:09:46.863Z,-4.52
2023-03-02T10:11:13.226Z,-4.61
2023-03-02T10:12:33.403Z,-4.46
2023-03-02T10:13:53.989Z,-4.28
2023-03-02T10:15:15.441Z,-4.01
2023-03-02T10:16:31.928Z,-3.99
2023-03-02T10:17:37.166Z,-3.83
2023-03-02T10:18:45.063Z,-3.73
2023-03-02T10:20:24.892Z,-3.87
2023-03-02T10:21:51.685Z,-4.04
2023-03-02T10:23:00.803Z,-4.01
2023-03-02T10:24:15.825Z,-3.99
2023-03-02T10:25:30.857Z,-3.93
2023-03-02T10:26:42.359Z,-3.93
2023-03-02T10:27:52.232Z,-3.91
2023-03-02T10:29:23.876Z,-3.95
2023-03-02T10:30:35.498Z,-4.13
2023-03-02T10:31:40.228Z,-4.14
2023-03-02T10:32:50.527Z,-4.09
2023-03-02T10:33:53.135Z,-4.11
2023-03-02T10:34:55.214Z,-4.02
2023-03-02T10:35:57.319Z,-4.18
2023-03-02T10:36:59.346Z,-4.20
2023-03-02T10:38:12.552Z,-4.27
2023-03-02T10:39:16.355Z,-4.36
2023-03-02T10:40:38.870Z,-4.56
2023-03-02T10:41:51.587Z,-4.68
2023-03-02T10:42:55.895Z,-4.73
2023-03-02T10:44:03.735Z,-4.70
2023-03-02T10:45:17.192Z,-4.84
2023-03-02T10:46:19.517Z,-4.86
2023-03-02T10:47:25.101Z,-4.77
2023-03-02T10:48:27.212Z,-4.88
2023-03-02T10:49:35.110Z,-4.88
2023-03-02T10:50:37.879Z,-4.79
2023-03-02T10:51:39.791Z,-4.67
2023-03-02T10:52:59.806Z,-4.63
2023-03-02T10:54:06.198Z,-4.68
2023-03-02T10:55:16.062Z,-4.89
2023-03-02T10:56:21.924Z,-4.77
2023-03-02T10:57:38.540Z,-4.76
2023-03-02T10:58:40.475Z,-4.88
2023-03-02T10:59:47.944Z,-4.78
2023-03-02T11:01:01.189Z,-4.72
2023-03-02T11:02:14.091Z,-4.68
2023-03-02T11:03:23.514Z,-4.98
2023-03-02T11:04:26.156Z,-4.99
2023-03-02T11:05:37.037Z,-4.86
2023-03-02T11:06:39.131Z,-4.83
2023-03-02T11:07:41.088Z,-4.95
2023-03-02T11:08:43.037Z,-4.93
2023-03-02T11:10:04.602Z,-4.93
2023-03-02T11:11:06.827Z,-5.09
2023-03-02T11:12:15.513Z,-5.05
2023-03-02T11:13:28.767Z,-4.98
2023-03-02T11:14:30.702Z,-4.79
2023-03-02T11:15:32.641Z,-4.72
2023-03-02T11:16:34.561Z,-4.67
2023-03-02T11:17:38.723Z,-4.57
2023-03-02T11:18:44.851Z,-4.37
2023-03-02T11:19:46.837Z,-4.19
2023-03-02T11:20:52.951Z,-4.24
2023-03-02T11:22:14.669Z,-4.30
2023-03-02T11:23:34.801Z,-4.22
2023-03-02T11:24:42.630Z,-4.20
2023-03-02T11:25:59.137Z,-4.16
2023-03-02T11:27:40.840Z,-4.45
2023-03-02T11:29:10.476Z,-4.62
2023-03-02T11:30:16.406Z,-4.59
2023-03-02T11:31:39.681Z,-4.67
2023-03-02T11:33:08.652Z,-4.56
2023-03-02T11:34:27.512Z,-4.45
2023-03-02T11:35:30.454Z,-4.52
2023-03-02T11:36:54.042Z,-4.57
2023-03-02T11:38:00.987Z,-4.64
2023-03-02T11:39:09.318Z,-4.59
2023-03-02T11:40:32.512Z,-4.68
2023-03-02T11:41:36.724Z,-4.82
2023-03-02T11:42:44.389Z,-4.81
2023-03-02T11:43:46.557Z,-4.79
2023-03-02T11:44:49.081Z,-4.71
2023-03-02T11:46:13.898Z,-4.57
2023-03-02T11:47:21.355Z,-4.48
2023-03-02T11:48:49.159Z,-4.52
2023-03-02T11:50:02.068Z,-4.48
2023-03-02T11:51:14.365Z,-4.49
2023-03-02T11:52:21.943Z,-4.52
2023-03-02T11:53:30.281Z,-4.54
2023-03-02T11:54:41.274Z,-4.52
2023-03-02T11:55:46.429Z,-4.46
2023-03-02T11:56:48.473Z,-4.40
2023-03-02T11:57:54.271Z,-4.35
2023-03-02T11:59:00.446Z,-4.28
2023-03-02T12:00:07.109Z,-4.25
2023-03-02T12:01:18.393Z,-4.28
2023-03-02T12:02:20.974Z,-4.15
2023-03-02T12:03:37.265Z,-4.15
2023-03-02T12:04:39.479Z,-4.09
2023-03-02T12:05:46.617Z,-4.09
2023-03-02T12:06:48.655Z,-4.09
2023-03-02T12:08:28.448Z,-4.11
2023-03-02T12:09:38.007Z,-4.05
2023-03-02T12:10:43.960Z,-4.18
2023-03-02T12:11:46.819Z,-4.19
2023-03-02T12:13:02.893Z,-4.25
2023-03-02T12:14:27.151Z,-4.37
2023-03-02T12:15:37.357Z,-4.48
2023-03-02T12:16:41.721Z,-4.49
2023-03-02T12:17:43.825Z,-4.53
2023-03-02T12:18:52.701Z,-4.55
2023-03-02T12:20:08.944Z,-4.64
2023-03-02T12:21:18.329Z,-4.83
2023-03-02T12:22:32.132Z,-5.13
2023-03-02T12:23:41.048Z,-5.08
2023-03-02T12:24:45.338Z,-5.16
2023-03-02T12:25:51.867Z,-5.43
2023-03-02T12:27:25.860Z,-5.38
2023-03-02T12:28:35.251Z,-5.42
2023-03-02T12:29:43.175Z,-5.55
2023-03-02T12:30:55.717Z,-5.39
2023-03-02T12:31:57.896Z,-5.63
2023-03-02T12:33:11.827Z,-5.62
2023-03-02T12:34:32.385Z,-5.63
2023-03-02T12:35:35.594Z,-5.79
2023-03-02T12:36:44.149Z,-5.85
2023-03-02T12:37:49.766Z,-5.74
2023-03-02T12:39:29.359Z,-5.78
2023-03-02T12:40:56.185Z,-5.71
2023-03-02T12:42:49.824Z,-5.63
2023-03-02T12:44:39.897Z,-5.61
2023-03-02T12:45:44.776Z,-5.68
2023-03-02T12:46:49.363Z,-5.65
2023-03-02T12:48:01.460Z,-5.69
2023-03-02T12:49:28.817Z,-5.60
2023-03-02T12:50:36.931Z,-5.63
2023-03-02T12:51:56.093Z,-5.60
2023-03-02T12:53:15.309Z,-5.64
2023-03-02T12:54:23.578Z,-5.56
2023-03-02T12:55:25.604Z,-5.49
2023-03-02T12:56:28.008Z,-5.44
2023-03-02T12:57:30.479Z,-5.42
2023-03-02T12:58:34.166Z,-5.36
2023-03-02T12:59:36.698Z,-5.35
2023-03-02T13:00:38.666Z,-5.24
2023-03-02T13:01:40.624Z,-5.37
2023-03-02T13:02:48.356Z,-5.47
2023-03-02T13:03:50.779Z,-5.64
2023-03-02T13:05:19.721Z,-5.63
2023-03-02T13:06:24.208Z,-5.61
2023-03-02T13:07:45.143Z,-5.57
2023-03-02T13:08:51.360Z,-5.55
2023-03-02T13:09:56.953Z,-5.60
2023-03-02T13:11:02.740Z,-5.51
2023-03-02T13:12:04.970Z,-5.44
2023-03-02T13:13:28.608Z,-5.30
2023-03-02T13:14:30.828Z,-5.21
2023-03-02T13:15:32.764Z,-5.21
2023-03-02T13:16:37.308Z,-5.22
2023-03-02T13:17:39.606Z,-5.17
2023-03-02T13:18:42.072Z,-5.10
2023-03-02T13:19:44.279Z,-5.03
2023-03-02T13:20:46.747Z,-5.09
2023-03-02T13:21:49.050Z,-5.14
2023-03-02T13:22:51.389Z,-5.21
2023-03-02T13:23:53.558Z,-5.29
2023-03-02T13:25:05.619Z,-5.28
2023-03-02T13:26:07.578Z,-5.34
2023-03-02T13:27:24.152Z,-5.33
2023-03-02T13:28:39.165Z,-5.30
2023-03-02T13:29:41.268Z,-5.33
2023-03-02T13:30:47.985Z,-5.38
2023-03-02T13:31:50.408Z,-5.29
2023-03-02T13:33:01.848Z,-5.29
2023-03-02T13:34:03.963Z,-5.34
2023-03-02T13:35:33.658Z,-5.39
2023-03-02T13:37:44.200Z,-5.35
2023-03-02T13:38:50.825Z,-5.44
2023-03-02T13:40:01.496Z,-5.39
2023-03-02T13:41:05.802Z,-5.42
2023-03-02T13:42:29.666Z,-5.47
2023-03-02T13:43:37.808Z,-5.52
2023-03-02T13:44:39.772Z,-5.55
2023-03-02T13:45:55.171Z,-5.52
2023-03-02T13:46:58.049Z,-5.50
2023-03-02T13:48:12.801Z,-5.47
2023-03-02T13:49:26.668Z,-5.49
2023-03-02T13:50:32.213Z,-5.47
2023-03-02T13:51:38.118Z,-5.59
2023-03-02T13:52:41.679Z,-5.62
2023-03-02T13:53:58.826Z,-5.66
2023-03-02T13:55:00.822Z,-5.77
2023-03-02T13:56:04.201Z,-5.85
2023-03-02T13:57:07.036Z,-5.86
2023-03-02T13:58:16.122Z,-5.90
2023-03-02T13:59:20.106Z,-5.99
2023-03-02T14:00:31.294Z,-5.99
2023-03-02T14:01:33.336Z,-6.09
2023-03-02T14:02:35.422Z,-6.06
2023-03-02T14:03:37.414Z,-6.08
2023-03-02T14:04:39.422Z,-6.08
2023-03-02T14:05:41.374Z,-6.11
2023-03-02T14:06:44.028Z,-6.24